Time;durP1;ratioP1;P1;durP2;ratioP2;P2;SDS_P1;SDS_P2;PMS_P1;PMS_P2;Temp;Humidity;BMP_temperature;BMP_pressure;BME280_temperature;BME280_humidity;BME280_pressure;Samples;Min_cycle;Max_cycle;Signal;HPM_P1;HPM_P2
2020/12/10 00:00:38;;;;;;;28.92;16.97;;;;;;;-4.22;63.39;101456.48;1779577;80;21026;-51
2020/12/10 00:03:05;;;;;;;26.57;15.90;;;;;;;-4.23;63.50;101444.55;1779334;80;21037;-51
2020/12/10 00:05:33;;;;;;;25.50;13.98;;;;;;;-4.26;63.49;101448.38;1779485;80;21197;-51
2020/12/10 00:08:01;;;;;;;28.42;16.42;;;;;;;-4.30;63.55;101442.99;1779295;80;21014;-50
2020/12/10 00:10:28;;;;;;;29.27;16.75;;;;;;;-4.35;63.63;101434.55;1779390;80;20946;-50
2020/12/10 00:12:58;;;;;;;29.37;15.78;;;;;;;-4.35;63.64;101437.23;1779417;80;21029;-50
2020/12/10 00:15:26;;;;;;;26.17;17.07;;;;;;;-4.36;63.64;101432.84;1779362;80;21583;-50
2020/12/10 00:17:53;;;;;;;29.20;15.00;;;;;;;-4.36;63.69;101431.50;1760816;81;21303;-51
2020/12/10 00:20:21;;;;;;;36.55;16.80;;;;;;;-4.35;63.76;101427.84;1779302;80;21023;-51
2020/12/10 00:22:48;;;;;;;27.10;14.30;;;;;;;-4.39;63.82;101417.89;1730658;82;21649;-50
2020/12/10 00:25:15;;;;;;;29.05;16.67;;;;;;;-4.40;63.84;101415.36;1779300;80;21461;-51
2020/12/10 00:27:42;;;;;;;22.58;13.93;;;;;;;-4.41;63.87;101423.08;1760892;81;21138;-51
2020/12/10 00:30:10;;;;;;;25.37;14.45;;;;;;;-4.38;63.80;101418.75;1779531;80;21272;-51
2020/12/10 00:32:39;;;;;;;24.25;15.25;;;;;;;-4.39;63.75;101413.03;1779388;80;21560;-51
2020/12/10 00:35:07;;;;;;;26.12;14.78;;;;;;;-4.39;63.85;101414.38;1779290;80;21018;-51
2020/12/10 00:37:36;;;;;;;30.17;16.48;;;;;;;-4.38;63.63;101408.02;1779313;80;22264;-51
2020/12/10 00:40:06;;;;;;;30.10;15.75;;;;;;;-4.39;63.62;101417.06;1779544;80;21021;-51
2020/12/10 00:42:34;;;;;;;27.30;13.98;;;;;;;-4.41;63.64;101413.19;1779411;80;22153;-50
2020/12/10 00:45:03;;;;;;;33.55;16.10;;;;;;;-4.41;63.70;101419.06;1779421;79;21026;-50
2020/12/10 00:47:31;;;;;;;39.60;14.58;;;;;;;-4.41;63.72;101413.70;1779516;80;21034;-51
2020/12/10 00:50:00;;;;;;;24.72;13.65;;;;;;;-4.41;63.72;101404.31;1779417;80;20982;-51
2020/12/10 00:52:27;;;;;;;23.22;13.85;;;;;;;-4.41;63.84;101406.98;1779395;80;21580;-51
2020/12/10 00:54:56;;;;;;;21.90;12.78;;;;;;;-4.45;63.65;101402.92;1778692;80;21219;-50
2020/12/10 00:57:26;;;;;;;23.30;13.10;;;;;;;-4.51;63.76;101397.15;1779173;80;21671;-51
2020/12/10 00:59:53;;;;;;;21.27;13.45;;;;;;;-4.53;64.00;101397.81;1760929;81;21028;-50
2020/12/10 01:02:21;;;;;;;25.85;13.50;;;;;;;-4.54;63.95;101384.05;1779217;80;22079;-50
2020/12/10 01:04:48;;;;;;;24.85;13.70;;;;;;;-4.56;64.02;101390.08;1760982;81;21056;-51
2020/12/10 01:07:16;;;;;;;26.05;13.90;;;;;;;-4.56;64.12;101383.84;1779321;80;21197;-50
2020/12/10 01:09:44;;;;;;;22.52;14.23;;;;;;;-4.58;64.11;101386.68;1760729;81;21067;-51
2020/12/10 01:12:13;;;;;;;24.72;13.98;;;;;;;-4.58;64.02;101389.36;1779534;80;21030;-50
2020/12/10 01:14:40;;;;;;;25.30;15.40;;;;;;;-4.59;64.08;101386.83;1760776;81;21310;-51
2020/12/10 01:17:07;;;;;;;26.12;16.02;;;;;;;-4.58;64.14;101389.36;1779471;80;20986;-51
2020/12/10 01:19:35;;;;;;;27.65;13.78;;;;;;;-4.58;64.03;101393.89;1760915;81;21196;-51
2020/12/10 01:22:03;;;;;;;23.32;13.68;;;;;;;-4.60;63.95;101398.06;1748594;81;21021;-51
2020/12/10 01:24:31;;;;;;;21.45;12.65;;;;;;;-4.65;63.87;101392.30;1779394;80;21033;-51
2020/12/10 01:26:59;;;;;;;27.48;13.98;;;;;;;-4.70;63.96;101393.23;1760934;81;20968;-51
2020/12/10 01:29:26;;;;;;;22.73;12.50;;;;;;;-4.74;64.03;101389.19;1781142;80;21021;-51
2020/12/10 01:31:54;;;;;;;23.42;14.50;;;;;;;-4.78;64.07;101391.81;1784007;80;21167;-51
2020/12/10 01:34:21;;;;;;;24.80;13.60;;;;;;;-4.81;64.12;101391.61;1784085;80;21567;-51
2020/12/10 01:36:49;;;;;;;22.10;14.75;;;;;;;-4.82;64.29;101382.37;1783976;80;21003;-51
2020/12/10 01:39:16;;;;;;;25.50;14.33;;;;;;;-4.83;64.33;101388.72;1783965;80;21260;-51
2020/12/10 01:41:45;;;;;;;24.92;14.58;;;;;;;-4.83;64.54;101380.17;1783999;80;20958;-51
2020/12/10 01:44:13;;;;;;;23.42;14.40;;;;;;;-4.82;64.57;101381.04;1783863;79;21037;-51
2020/12/10 01:46:42;;;;;;;22.60;15.70;;;;;;;-4.81;64.60;101377.38;1784090;80;21168;-51
2020/12/10 01:49:10;;;;;;;20.32;13.48;;;;;;;-4.79;64.54;101376.72;1783976;80;21017;-51
2020/12/10 01:51:37;;;;;;;23.83;14.90;;;;;;;-4.80;64.51;101380.38;1784040;80;21297;-51
2020/12/10 01:54:05;;;;;;;25.37;14.35;;;;;;;-4.81;64.53;101375.53;1783877;80;22336;-51
2020/12/10 01:56:33;;;;;;;22.15;13.50;;;;;;;-4.80;64.57;101380.38;1783999;80;21191;-50
2020/12/10 01:59:02;;;;;;;22.32;13.70;;;;;;;-4.79;64.64;101375.38;1784030;80;21559;-51
2020/12/10 02:01:30;;;;;;;22.32;13.78;;;;;;;-4.76;64.52;101381.77;1784073;80;21619;-50
2020/12/10 02:03:58;;;;;;;22.13;13.20;;;;;;;-4.78;64.39;101385.11;1784005;80;21623;-51
2020/12/10 02:06:26;;;;;;;28.95;13.75;;;;;;;-4.78;64.45;101382.44;1783987;80;21135;-51
2020/12/10 02:08:54;;;;;;;18.75;13.20;;;;;;;-4.78;64.20;101381.09;1783908;80;21686;-50
2020/12/10 02:11:24;;;;;;;27.67;14.40;;;;;;;-4.83;64.37;101386.05;1783745;80;21571;-51
2020/12/10 02:13:52;;;;;;;20.70;12.80;;;;;;;-4.84;64.45;101376.30;1783900;80;21033;-50
2020/12/10 02:16:19;;;;;;;22.17;13.15;;;;;;;-4.82;64.50;101378.36;1783877;80;21575;-50
2020/12/10 02:18:54;;;;;;;21.85;14.07;;;;;;;-4.83;64.46;101370.80;1784031;80;20985;-51
2020/12/10 02:21:21;;;;;;;22.22;14.05;;;;;;;-4.83;64.50;101376.66;1756186;80;21201;-51
2020/12/10 02:23:53;;;;;;;28.57;14.38;;;;;;;-4.82;64.51;101373.00;1783945;80;21017;-51
2020/12/10 02:26:23;;;;;;;30.45;16.12;;;;;;;-4.86;64.47;101365.27;1783885;80;21464;-51
2020/12/10 02:28:51;;;;;;;22.50;13.53;;;;;;;-4.90;64.48;101358.51;1783968;80;21056;-51
2020/12/10 02:31:24;;;;;;;30.68;16.80;;;;;;;-4.94;64.62;101358.45;1783806;80;20998;-50
2020/12/10 02:34:02;;;;;;;22.70;12.13;;;;;;;-4.95;64.75;101351.39;1784003;80;21271;-50
2020/12/10 02:36:30;;;;;;;26.33;14.23;;;;;;;-4.94;64.77;101348.23;1783954;80;21026;-50
2020/12/10 02:38:58;;;;;;;23.90;14.63;;;;;;;-4.99;64.78;101339.28;1783906;80;21212;-50
2020/12/10 02:41:26;;;;;;;23.80;14.93;;;;;;;-5.01;64.92;101335.09;1783847;80;20997;-56
2020/12/10 02:43:54;;;;;;;27.60;14.45;;;;;;;-5.00;64.97;101336.28;1784009;80;21045;-51
2020/12/10 02:46:21;;;;;;;30.12;17.20;;;;;;;-4.96;65.03;101326.92;1783893;79;21598;-52
2020/12/10 02:48:49;;;;;;;21.48;14.00;;;;;;;-4.91;64.93;101328.67;1783804;80;21022;-52
2020/12/10 02:51:16;;;;;;;22.67;13.58;;;;;;;-4.88;64.83;101326.19;1783939;80;20942;-52
2020/12/10 02:53:45;;;;;;;21.68;12.85;;;;;;;-4.92;64.63;101328.31;1783969;80;21056;-52
2020/12/10 02:56:14;;;;;;;20.12;13.80;;;;;;;-4.96;64.67;101320.73;1783781;80;21009;-52
2020/12/10 02:58:42;;;;;;;21.90;13.00;;;;;;;-4.99;64.87;101326.39;1784078;80;21370;-49
2020/12/10 03:01:10;;;;;;;24.37;14.15;;;;;;;-4.97;64.76;101331.95;1783667;80;20978;-52
2020/12/10 03:03:38;;;;;;;23.38;13.13;;;;;;;-5.00;64.81;101320.20;1783925;80;21606;-51
2020/12/10 03:06:08;;;;;;;22.67;14.43;;;;;;;-4.98;64.83;101314.69;1783878;80;22079;-52
2020/12/10 03:08:36;;;;;;;21.80;13.13;;;;;;;-5.02;64.72;101322.17;1783807;80;21012;-51
2020/12/10 03:11:07;;;;;;;31.90;13.68;;;;;;;-5.04;64.82;101333.55;1784109;80;22136;-51
2020/12/10 03:13:35;;;;;;;26.23;14.60;;;;;;;-5.10;64.92;101330.09;1783867;80;21071;-51
2020/12/10 03:16:03;;;;;;;21.37;12.03;;;;;;;-5.11;65.08;101327.09;1784103;80;21165;-51
2020/12/10 03:18:31;;;;;;;26.05;13.50;;;;;;;-5.07;65.21;101326.64;1783993;80;21010;-51
2020/12/10 03:20:58;;;;;;;26.93;14.00;;;;;;;-5.04;65.09;101330.87;1784002;80;21547;-52
2020/12/10 03:23:26;;;;;;;22.00;12.10;;;;;;;-5.07;65.13;101325.81;1783876;80;21199;-51
2020/12/10 03:25:54;;;;;;;24.92;14.25;;;;;;;-5.07;65.08;101328.48;1783900;80;21617;-52
2020/12/10 03:28:24;;;;;;;23.57;14.43;;;;;;;-5.11;65.16;101328.44;1783782;80;22362;-52
2020/12/10 03:30:51;;;;;;;22.50;13.90;;;;;;;-5.12;65.29;101333.44;1783758;80;22077;-52
2020/12/10 03:33:19;;;;;;;25.75;15.60;;;;;;;-5.11;65.24;101331.11;1783884;80;20998;-51
2020/12/10 03:35:46;;;;;;;22.02;12.50;;;;;;;-5.10;65.37;101334.98;1783813;80;21284;-52
2020/12/10 03:38:14;;;;;;;31.65;15.65;;;;;;;-5.11;65.29;101327.09;1783664;80;21009;-51
2020/12/10 03:40:41;;;;;;;26.50;15.08;;;;;;;-5.17;65.50;101324.98;1783940;80;21594;-51
2020/12/10 03:43:09;;;;;;;22.62;14.13;;;;;;;-5.15;65.46;101306.44;1783763;80;21002;-51
2020/12/10 03:45:36;;;;;;;28.05;14.03;;;;;;;-5.16;65.52;101304.75;1783864;79;21590;-51
2020/12/10 03:48:03;;;;;;;23.00;13.18;;;;;;;-5.14;65.53;101307.30;1783869;80;21656;-51
2020/12/10 03:50:31;;;;;;;19.65;13.62;;;;;;;-5.15;65.64;101301.09;1783843;80;21029;-51
2020/12/10 03:52:59;;;;;;;18.70;12.37;;;;;;;-5.17;65.64;101291.03;1783659;80;20977;-51
2020/12/10 03:55:27;;;;;;;23.62;15.03;;;;;;;-5.16;65.74;101292.69;1783793;80;20954;-51
2020/12/10 03:57:55;;;;;;;25.30;14.35;;;;;;;-5.15;65.68;101292.22;1783826;80;21025;-51
2020/12/10 04:00:23;;;;;;;42.17;14.13;;;;;;;-5.09;65.65;101282.23;1783911;80;21206;-51
2020/12/10 04:02:50;;;;;;;21.48;13.30;;;;;;;-5.07;65.46;101287.80;1783877;80;20935;-51
2020/12/10 04:05:18;;;;;;;19.07;12.18;;;;;;;-5.09;65.34;101294.29;1783841;80;21050;-51
2020/12/10 04:07:50;;;;;;;16.97;11.75;;;;;;;-5.13;65.42;101276.82;1783919;80;21736;-51
2020/12/10 04:10:18;;;;;;;26.02;14.10;;;;;;;-5.13;65.38;101276.82;1783672;80;21016;-50
2020/12/10 04:12:45;;;;;;;25.20;13.03;;;;;;;-5.19;65.48;101268.05;1784000;80;21448;-52
2020/12/10 04:15:12;;;;;;;22.70;13.70;;;;;;;-5.18;65.51;101269.24;1783810;80;20997;-50
2020/12/10 04:17:40;;;;;;;21.60;14.20;;;;;;;-5.24;65.48;101262.64;1783984;80;21037;-51
2020/12/10 04:20:08;;;;;;;21.12;14.20;;;;;;;-5.26;65.67;101263.30;1783693;80;21017;-50
2020/12/10 04:22:35;;;;;;;22.35;11.45;;;;;;;-5.24;65.77;101262.64;1783873;80;21002;-50
2020/12/10 04:25:03;;;;;;;34.55;12.80;;;;;;;-5.22;65.81;101266.52;1783763;80;21024;-51
2020/12/10 04:27:30;;;;;;;25.15;13.40;;;;;;;-5.25;65.91;101268.98;1783736;80;20938;-50
2020/12/10 04:29:58;;;;;;;24.70;13.95;;;;;;;-5.21;65.93;101268.20;1783893;80;21163;-50
2020/12/10 04:32:26;;;;;;;23.00;13.32;;;;;;;-5.19;65.90;101264.87;1783854;80;21014;-50
2020/12/10 04:34:53;;;;;;;27.80;14.38;;;;;;;-5.17;65.94;101264.72;1783966;80;21010;-50
2020/12/10 04:37:21;;;;;;;25.68;15.43;;;;;;;-5.13;65.86;101263.42;1783885;80;21369;-50
2020/12/10 04:39:48;;;;;;;28.65;13.35;;;;;;;-5.13;65.82;101262.09;1783829;80;21018;-52
2020/12/10 04:42:17;;;;;;;26.10;13.48;;;;;;;-5.10;65.74;101261.30;1783707;80;21578;-50
2020/12/10 04:44:46;;;;;;;26.05;14.47;;;;;;;-5.07;65.67;101264.19;1783672;79;20985;-51
2020/12/10 04:47:14;;;;;;;22.90;13.83;;;;;;;-5.07;65.76;101264.19;1783709;80;21559;-51
2020/12/10 04:49:42;;;;;;;21.75;13.32;;;;;;;-5.01;65.77;101263.58;1783787;80;21306;-51
2020/12/10 04:52:10;;;;;;;29.05;14.50;;;;;;;-4.93;65.69;101266.36;1783903;80;21119;-51
2020/12/10 04:54:39;;;;;;;20.52;13.28;;;;;;;-4.81;65.67;101268.82;1783925;80;21001;-51
2020/12/10 04:57:10;;;;;;;25.15;12.25;;;;;;;-4.72;65.55;101265.21;1783611;80;21041;-51
2020/12/10 04:59:39;;;;;;;20.95;12.68;;;;;;;-4.70;65.19;101260.05;1784171;80;20998;-51
2020/12/10 05:02:11;;;;;;;41.15;15.40;;;;;;;-4.72;65.22;101251.30;1783963;80;22181;-51
2020/12/10 05:04:39;;;;;;;32.93;16.30;;;;;;;-4.74;65.26;101244.43;1783809;80;21029;-51
2020/12/10 05:07:07;;;;;;;26.62;14.75;;;;;;;-4.78;65.33;101239.02;1783952;80;21029;-51
2020/12/10 05:09:35;;;;;;;28.02;14.40;;;;;;;-4.76;65.41;101241.04;1783908;80;21730;-52
2020/12/10 05:12:03;;;;;;;28.42;14.58;;;;;;;-4.77;65.42;101250.07;1784064;80;21365;-51
2020/12/10 05:14:46;;;;;;;22.85;14.78;;;;;;;-4.72;65.50;101247.78;1783898;80;21249;-52
2020/12/10 05:17:15;;;;;;;29.10;15.13;;;;;;;-4.69;65.26;101248.34;1783941;80;21041;-50
2020/12/10 05:19:44;;;;;;;32.45;15.38;;;;;;;-4.71;65.14;101247.63;1784072;80;21025;-51
2020/12/10 05:22:11;;;;;;;27.62;14.47;;;;;;;-4.72;65.19;101255.83;1755650;80;21052;-51
2020/12/10 05:24:38;;;;;;;29.07;15.63;;;;;;;-4.71;65.21;101256.19;1784090;80;20961;-52
2020/12/10 05:27:22;;;;;;;38.08;17.35;;;;;;;-4.70;65.04;101263.20;1783926;80;21048;-51
2020/12/10 05:29:52;;;;;;;31.87;17.10;;;;;;;-4.72;65.08;101269.23;1783857;80;21044;-51
2020/12/10 05:32:41;;;;;;;35.70;16.25;;;;;;;-4.74;65.12;101272.58;1779449;80;20994;-51
2020/12/10 05:35:23;;;;;;;37.38;18.42;;;;;;;-4.77;65.28;101269.70;1779611;80;21535;-51
2020/12/10 05:37:53;;;;;;;33.95;18.10;;;;;;;-4.72;65.31;101267.38;1779417;80;21004;-51
2020/12/10 05:40:21;;;;;;;34.00;17.23;;;;;;;-4.65;65.30;101271.65;1779302;80;21230;-51
2020/12/10 05:42:51;;;;;;;24.98;14.13;;;;;;;-4.58;65.26;101270.04;1792896;79;21034;-51
2020/12/10 05:45:21;;;;;;;32.58;16.32;;;;;;;-4.52;65.06;101273.44;1810748;77;21089;-51
2020/12/10 05:47:58;;;;;;;23.62;13.83;;;;;;;-4.54;65.19;101268.74;1810679;79;21646;-52
2020/12/10 05:50:28;;;;;;;33.02;18.07;;;;;;;-4.48;65.17;101273.16;1811196;79;21033;-52
2020/12/10 05:53:10;;;;;;;29.50;16.40;;;;;;;-4.53;65.21;101274.45;1811084;79;21478;-52
2020/12/10 05:55:49;;;;;;;26.73;16.55;;;;;;;-4.51;65.43;101277.81;1811233;79;21034;-51
2020/12/10 05:58:19;;;;;;;28.50;17.17;;;;;;;-4.47;65.47;101269.45;1811343;79;20981;-52
2020/12/10 06:00:46;;;;;;;24.32;15.50;;;;;;;-4.47;65.54;101270.80;1811241;79;21318;-52
2020/12/10 06:03:14;;;;;;;36.13;17.32;;;;;;;-4.41;65.70;101274.23;1811142;79;21002;-51
2020/12/10 06:05:43;;;;;;;34.10;18.55;;;;;;;-4.38;65.64;101268.55;1786934;79;21200;-51
2020/12/10 06:08:10;;;;;;;41.73;17.52;;;;;;;-4.35;65.56;101269.58;1811190;78;21013;-51
2020/12/10 06:10:42;;;;;;;31.23;18.92;;;;;;;-4.38;65.60;101269.38;1779246;80;21042;-50
2020/12/10 06:13:11;;;;;;;33.63;19.55;;;;;;;-4.34;65.83;101264.56;1811380;79;20962;-51
2020/12/10 06:15:38;;;;;;;49.33;25.08;;;;;;;-4.30;65.93;101267.28;1779534;80;21002;-51
2020/12/10 06:18:11;;;;;;;40.92;21.07;;;;;;;-4.27;65.98;101266.11;1811403;79;21085;-50
2020/12/10 06:20:44;;;;;;;32.50;18.00;;;;;;;-4.20;66.09;101269.38;1779243;80;21632;-49
2020/12/10 06:26:30;;;;;;;35.90;18.73;;;;;;;-3.99;65.84;101258.77;1846615;76;28691;-51
2020/12/10 06:29:18;;;;;;;32.50;18.23;;;;;;;-4.04;65.92;101258.42;1816885;79;20960;-52
2020/12/10 06:32:15;;;;;;;38.30;19.42;;;;;;;-4.09;66.00;101255.36;1816673;79;21187;-51
2020/12/10 06:34:54;;;;;;;40.05;18.80;;;;;;;-4.14;66.29;101248.27;1816674;78;21057;-51
2020/12/10 06:37:30;;;;;;;26.90;17.12;;;;;;;-4.19;66.65;101244.72;1816637;78;21016;-51
2020/12/10 06:40:00;;;;;;;38.58;19.75;;;;;;;-4.18;66.60;101248.58;1816705;79;20982;-51
2020/12/10 06:42:45;;;;;;;39.65;20.10;;;;;;;-4.25;66.71;101247.52;1812936;77;21033;-51
2020/12/10 06:45:34;;;;;;;42.40;20.17;;;;;;;-4.20;66.87;101239.86;1767567;80;21195;-51
2020/12/10 06:48:07;;;;;;;28.10;16.10;;;;;;;-4.18;66.95;101239.19;1769706;79;21004;-51
2020/12/10 06:50:40;;;;;;;28.73;16.57;;;;;;;-4.09;66.89;101240.09;1787186;80;21035;-51
2020/12/10 06:53:21;;;;;;;36.90;17.42;;;;;;;-4.06;66.72;101231.75;1795795;79;21140;-51
2020/12/10 06:56:04;;;;;;;33.35;17.07;;;;;;;-4.13;66.71;101229.31;1782843;78;21171;-53
2020/12/10 06:58:42;;;;;;;36.20;19.17;;;;;;;-4.10;66.96;101228.17;1814079;79;21365;-52
2020/12/10 07:01:31;;;;;;;32.83;16.67;;;;;;;-4.05;66.98;101232.06;1814345;79;21563;-52
2020/12/10 07:09:58;;;;;;;40.12;19.23;;;;;;;-3.90;66.74;101229.66;1846584;76;28194;-51
2020/12/10 07:12:34;;;;;;;45.15;18.82;;;;;;;-3.96;66.95;101231.61;1816534;78;21623;-52
2020/12/10 07:15:23;;;;;;;34.75;17.65;;;;;;;-3.93;67.08;101231.33;1816611;78;21413;-51
2020/12/10 07:17:49;;;;;;;38.83;19.48;;;;;;;-3.87;66.98;101226.66;1816405;79;21039;-52
2020/12/10 07:20:17;;;;;;;31.80;19.17;;;;;;;-3.79;67.04;101235.75;1816515;78;21635;-52
2020/12/10 07:22:45;;;;;;;47.08;18.82;;;;;;;-3.76;66.92;101232.75;1816313;79;20994;-52
2020/12/10 07:25:12;;;;;;;34.05;19.35;;;;;;;-3.76;67.01;101234.92;1816447;78;20998;-52
2020/12/10 07:27:41;;;;;;;33.50;18.07;;;;;;;-3.76;67.17;101234.09;1816559;79;21270;-52
2020/12/10 07:30:16;;;;;;;32.95;19.12;;;;;;;-3.75;67.01;101231.76;1816530;79;20989;-52
2020/12/10 07:32:44;;;;;;;34.70;19.73;;;;;;;-3.73;67.12;101233.28;1816657;79;21010;-52
2020/12/10 07:35:15;;;;;;;27.42;18.48;;;;;;;-3.67;67.17;101245.23;1816451;78;21500;-52
2020/12/10 07:37:43;;;;;;;58.98;26.90;;;;;;;-3.66;66.99;101234.33;1816586;79;20966;-52
2020/12/10 07:40:18;;;;;;;35.33;19.37;;;;;;;-3.63;67.02;101230.45;1816624;79;21191;-51
2020/12/10 07:42:46;;;;;;;;;;;;;;;-3.65;67.11;101235.16;1819140;79;20958;-52
2020/12/10 07:45:17;;;;;;;34.33;19.57;;;;;;;-3.64;67.31;101232.83;1797899;79;20154;-51
2020/12/10 07:47:56;;;;;;;47.55;21.80;;;;;;;-3.63;67.34;101226.94;1784512;80;21570;-52
2020/12/10 07:50:25;;;;;;;46.73;21.20;;;;;;;-3.60;67.50;101231.51;1784541;80;21567;-51
2020/12/10 07:52:57;;;;;;;33.20;18.37;;;;;;;-3.54;67.49;101238.91;1802533;79;21191;-51
2020/12/10 07:55:27;;;;;;;30.82;18.70;;;;;;;-3.54;67.59;101233.54;1770698;78;21025;-50
2020/12/10 07:58:13;;;;;;;27.40;17.15;;;;;;;-3.50;67.53;101234.91;1817155;79;21013;-52
2020/12/10 08:00:41;;;;;;;38.60;18.60;;;;;;;-3.50;67.31;101234.91;1817153;79;21291;-52
2020/12/10 08:03:26;;;;;;;33.55;17.98;;;;;;;-3.50;67.53;101236.25;1816876;79;21053;-54
2020/12/10 08:06:09;;;;;;;42.43;19.42;;;;;;;-3.49;67.37;101233.91;1817301;78;21191;-53
2020/12/10 08:11:25;;;;;;;38.13;18.48;;;;;;;-3.61;67.64;101220.41;1888197;76;28213;-53
2020/12/10 08:14:12;;;;;;;33.23;18.25;;;;;;;-3.68;67.79;101220.72;1859439;77;21009;-52
2020/12/10 08:16:41;;;;;;;37.15;18.52;;;;;;;-3.66;68.04;101211.98;1858355;77;21005;-52
2020/12/10 08:19:28;;;;;;;41.85;17.57;;;;;;;-3.64;67.91;101205.97;1821657;78;20983;-52
2020/12/10 08:21:55;;;;;;;;;;;;;;;-3.68;68.02;101195.20;1827309;77;21559;-53
2020/12/10 08:24:43;;;;;;;34.15;19.50;;;;;;;-3.70;68.03;101199.87;1849380;77;20181;-51
2020/12/10 08:27:12;;;;;;;34.73;18.25;;;;;;;-3.73;68.21;101200.20;1820308;77;20974;-52
2020/12/10 08:29:39;;;;;;;29.23;17.90;;;;;;;-3.70;68.46;101190.48;1833802;77;21360;-53
2020/12/10 08:32:12;;;;;;;35.98;19.32;;;;;;;-3.63;68.48;101180.77;1786340;79;21670;-53
2020/12/10 08:34:40;;;;;;;42.45;20.35;;;;;;;-3.55;68.48;101180.81;1820285;78;21504;-52
2020/12/10 08:37:11;;;;;;;48.08;23.65;;;;;;;-3.47;68.31;101170.11;1771620;78;20926;-52
2020/12/10 08:39:40;;;;;;;35.98;20.23;;;;;;;-3.35;68.17;101173.84;1779519;79;20958;-54
2020/12/10 08:42:07;;;;;;;43.10;20.43;;;;;;;-3.25;67.95;101171.84;1784921;79;21324;-52
2020/12/10 08:44:49;;;;;;;39.25;21.12;;;;;;;-3.20;67.55;101178.92;1790701;79;21063;-52
2020/12/10 08:47:26;;;;;;;32.88;18.10;;;;;;;-3.19;67.35;101177.90;1745622;80;21580;-52
2020/12/10 08:50:27;;;;;;;36.93;21.68;;;;;;;-3.20;67.28;101174.89;1775405;79;20986;-52
2020/12/10 08:53:03;;;;;;;35.35;19.92;;;;;;;-3.16;67.38;101172.70;1784583;79;21881;-51
2020/12/10 08:55:39;;;;;;;39.48;21.23;;;;;;;-3.13;67.20;101166.52;1784622;79;21129;-51
2020/12/10 08:58:08;;;;;;;59.38;30.17;;;;;;;-3.09;66.96;101168.86;1773961;79;20982;-52
2020/12/10 09:00:37;;;;;;;43.30;22.67;;;;;;;-3.12;66.97;101173.55;1779174;79;21010;-51
2020/12/10 09:03:06;;;;;;;39.38;20.00;;;;;;;-3.10;66.55;101167.17;1781040;79;20935;-50
2020/12/10 09:05:33;;;;;;;41.70;23.18;;;;;;;-3.12;66.62;101174.89;1781467;79;20988;-52
2020/12/10 09:08:00;;;;;;;64.12;25.32;;;;;;;-3.13;66.59;101175.05;1780180;79;21360;-52
2020/12/10 09:10:30;;;;;;;43.35;21.90;;;;;;;-3.08;66.80;101167.35;1779361;79;21069;-51
2020/12/10 09:12:59;;;;;;;55.15;24.18;;;;;;;-3.00;66.67;101173.23;1777270;80;21020;-52
2020/12/10 09:15:28;;;;;;;39.60;23.40;;;;;;;-3.00;66.72;101171.89;1781117;79;20974;-51
2020/12/10 09:17:56;;;;;;;44.70;22.30;;;;;;;-2.97;66.71;101163.52;1781266;80;20926;-52
2020/12/10 09:20:24;;;;;;;37.13;20.75;;;;;;;-2.98;66.74;101165.34;1778719;79;21997;-51
2020/12/10 09:22:51;;;;;;;46.13;25.30;;;;;;;-2.91;66.72;101160.67;1781553;79;21041;-51
2020/12/10 09:25:18;;;;;;;37.05;20.27;;;;;;;-2.87;66.54;101154.78;1781259;80;21632;-51
2020/12/10 09:27:46;;;;;;;45.88;24.37;;;;;;;-2.83;66.48;101145.37;1778644;79;20993;-52
2020/12/10 09:30:14;;;;;;;50.28;27.15;;;;;;;-2.78;66.45;101148.39;1763175;80;20974;-52
2020/12/10 09:32:42;;;;;;;37.33;20.45;;;;;;;-2.68;66.31;101144.70;1761261;80;21531;-51
2020/12/10 09:35:12;;;;;;;48.38;24.63;;;;;;;-2.65;66.07;101143.02;1762875;80;21144;-51
2020/12/10 09:37:40;;;;;;;43.73;21.00;;;;;;;-2.65;65.90;101145.19;1762258;80;21010;-51
2020/12/10 09:40:11;;;;;;;36.23;20.35;;;;;;;-2.71;65.76;101143.70;1754258;80;21065;-52
2020/12/10 09:42:41;;;;;;;37.67;20.62;;;;;;;-2.76;65.92;101150.08;1760668;80;21683;-53
2020/12/10 09:45:11;;;;;;;37.23;19.73;;;;;;;-2.85;66.20;101150.06;1754397;80;21380;-51
2020/12/10 09:47:41;;;;;;;35.28;20.88;;;;;;;-2.86;66.54;101147.06;1749141;80;20962;-52
2020/12/10 09:50:18;;;;;;;38.08;21.33;;;;;;;-2.88;66.49;101146.89;1755680;80;20997;-52
2020/12/10 09:52:41;;;;;;;41.68;23.80;;;;;;;-2.90;66.78;101155.13;1750345;80;21056;-54
2020/12/10 09:55:35;;;;;;;49.30;25.82;;;;;;;-2.90;66.82;101164.53;1749231;80;21652;-52
2020/12/10 09:57:42;;;;;;;71.45;38.75;;;;;;;-2.88;67.03;101165.70;1757308;80;21450;-51
2020/12/10 10:00:09;;;;;;;52.10;26.30;;;;;;;-2.77;67.15;101158.66;1754250;80;20998;-52
2020/12/10 10:02:39;;;;;;;39.92;22.73;;;;;;;-2.67;67.01;101140.50;1755320;80;20994;-53
2020/12/10 10:05:07;;;;;;;36.60;20.43;;;;;;;-2.57;66.83;101138.13;1752066;79;21434;-52
2020/12/10 10:07:37;;;;;;;37.78;20.82;;;;;;;-2.57;66.75;101139.47;1748998;80;21014;-51
2020/12/10 10:10:03;;;;;;;41.10;21.40;;;;;;;-2.57;66.81;101138.13;1754945;80;21211;-53
2020/12/10 10:12:31;;;;;;;38.25;21.52;;;;;;;-2.57;66.93;101142.16;1753600;80;21128;-53
2020/12/10 10:14:59;;;;;;;47.78;24.98;;;;;;;-2.56;67.04;101139.30;1750978;80;20978;-52
2020/12/10 10:17:26;;;;;;;39.60;21.62;;;;;;;-2.57;67.21;101133.61;1759896;80;21013;-52
2020/12/10 10:19:54;;;;;;;51.95;24.43;;;;;;;-2.58;67.26;101133.27;1757122;80;20977;-53
2020/12/10 10:22:21;;;;;;;42.40;21.75;;;;;;;-2.57;67.43;101134.95;1755263;80;22191;-51
2020/12/10 10:24:49;;;;;;;41.08;22.52;;;;;;;-2.58;67.53;101130.57;1756591;80;21006;-51
2020/12/10 10:27:17;;;;;;;39.50;22.05;;;;;;;-2.64;67.66;101116.47;1751972;80;21921;-51
2020/12/10 10:29:44;;;;;;;38.95;22.42;;;;;;;-2.64;67.88;101106.53;1743452;81;20982;-53
2020/12/10 10:32:11;;;;;;;45.88;25.85;;;;;;;-2.63;68.00;101114.09;1756947;80;20981;-51
2020/12/10 10:34:41;;;;;;;40.05;22.20;;;;;;;-2.63;67.96;101113.61;1759510;80;21347;-52
2020/12/10 10:37:09;;;;;;;44.80;23.40;;;;;;;-2.62;68.10;101111.74;1756241;80;20950;-51
2020/12/10 10:39:36;;;;;;;51.85;26.73;;;;;;;-2.60;68.20;101100.33;1761263;80;20982;-52
2020/12/10 10:42:05;;;;;;;42.67;23.65;;;;;;;-2.56;68.22;101102.98;1751137;80;20978;-51
2020/12/10 10:44:32;;;;;;;54.00;24.15;;;;;;;-2.47;68.13;101105.19;1704415;80;21002;-51
2020/12/10 10:47:00;;;;;;;42.00;23.77;;;;;;;-2.47;68.02;101106.02;1759185;80;21401;-53
2020/12/10 10:49:27;;;;;;;46.28;22.30;;;;;;;-2.49;67.92;101112.05;1760671;80;21040;-52
2020/12/10 10:51:54;;;;;;;41.98;22.80;;;;;;;-2.48;68.06;101111.56;1756518;80;21538;-52
2020/12/10 10:54:22;;;;;;;49.50;25.00;;;;;;;-2.45;68.07;101105.84;1755278;80;20980;-53
2020/12/10 10:56:49;;;;;;;51.13;25.37;;;;;;;-2.41;68.24;101103.62;1759838;80;20954;-52
2020/12/10 10:59:16;;;;;;;69.92;34.73;;;;;;;-2.39;68.08;101107.00;1755708;79;21411;-51
2020/12/10 11:01:44;;;;;;;45.45;26.73;;;;;;;-2.40;68.24;101106.66;1758196;80;22278;-51
2020/12/10 11:04:12;;;;;;;39.13;22.37;;;;;;;-2.40;68.40;101117.42;1754332;80;20962;-52
2020/12/10 11:06:39;;;;;;;56.00;29.77;;;;;;;-2.38;68.45;101113.56;1756067;80;20977;-52
2020/12/10 11:09:07;;;;;;;66.47;34.23;;;;;;;-2.34;68.42;101108.69;1754375;80;20981;-52
2020/12/10 11:11:34;;;;;;;46.10;25.48;;;;;;;-2.32;68.34;101109.34;1741867;80;22139;-52
2020/12/10 11:14:01;;;;;;;53.85;27.90;;;;;;;-2.29;68.33;101111.20;1763661;80;21001;-53
2020/12/10 11:16:29;;;;;;;52.70;26.55;;;;;;;-2.27;68.42;101112.38;1758781;80;20938;-52
2020/12/10 11:18:57;;;;;;;48.90;26.20;;;;;;;-2.21;68.42;101104.95;1751620;80;20917;-52
2020/12/10 11:21:27;;;;;;;47.05;26.12;;;;;;;-2.22;68.74;101115.37;1783048;79;21454;-52
2020/12/10 11:23:54;;;;;;;53.05;24.75;;;;;;;-2.34;69.21;101112.73;1767746;79;22264;-51
2020/12/10 11:26:22;;;;;;;50.12;22.27;;;;;;;-2.40;69.62;101106.18;1742901;81;21015;-54
2020/12/10 11:28:50;;;;;;;46.28;24.10;;;;;;;-2.44;70.00;101097.59;1776269;79;20977;-51
2020/12/10 11:31:18;;;;;;;50.90;27.58;;;;;;;-2.42;70.18;101101.45;1758562;80;20930;-52
2020/12/10 11:33:47;;;;;;;51.70;25.97;;;;;;;-2.37;70.22;101108.52;1775239;79;21088;-52